sensor_id;sensor_type;location;lat;lon;timestamp;P1;durP1;ratioP1;P2;durP2;ratioP2
76599;SDS011;65489;52.048;6.090;2023-06-14T00:01:01;1.75;;;1.60;;
76599;SDS011;65489;52.048;6.090;2023-06-14T00:03:28;1.95;;;1.58;;
76599;SDS011;65489;52.048;6.090;2023-06-14T00:05:54;1.70;;;1.50;;
76599;SDS011;65489;52.048;6.090;2023-06-14T00:08:19;2.67;;;1.50;;
76599;SDS011;65489;52.048;6.090;2023-06-14T00:10:47;1.90;;;1.40;;
76599;SDS011;65489;52.048;6.090;2023-06-14T00:13:13;1.65;;;1.55;;
76599;SDS011;65489;52.048;6.090;2023-06-14T00:15:39;2.53;;;1.80;;
76599;SDS011;65489;52.048;6.090;2023-06-14T00:18:05;2.83;;;1.40;;
76599;SDS011;65489;52.048;6.090;2023-06-14T00:20:31;1.67;;;1.58;;
76599;SDS011;65489;52.048;6.090;2023-06-14T00:22:58;2.67;;;1.52;;
76599;SDS011;65489;52.048;6.090;2023-06-14T00:25:26;2.40;;;1.70;;
76599;SDS011;65489;52.048;6.090;2023-06-14T00:27:52;2.13;;;1.52;;
76599;SDS011;65489;52.048;6.090;2023-06-14T00:30:19;2.78;;;1.33;;
76599;SDS011;65489;52.048;6.090;2023-06-14T00:32:44;4.13;;;1.38;;
76599;SDS011;65489;52.048;6.090;2023-06-14T00:35:10;2.83;;;1.60;;
76599;SDS011;65489;52.048;6.090;2023-06-14T00:37:36;1.65;;;1.50;;
76599;SDS011;65489;52.048;6.090;2023-06-14T00:40:02;1.60;;;1.50;;
76599;SDS011;65489;52.048;6.090;2023-06-14T00:42:29;2.45;;;1.30;;
76599;SDS011;65489;52.048;6.090;2023-06-14T00:44:55;1.98;;;1.60;;
76599;SDS011;65489;52.048;6.090;2023-06-14T00:47:20;2.08;;;1.45;;
76599;SDS011;65489;52.048;6.090;2023-06-14T00:49:46;2.75;;;1.45;;
76599;SDS011;65489;52.048;6.090;2023-06-14T00:52:13;3.22;;;1.45;;
76599;SDS011;65489;52.048;6.090;2023-06-14T00:54:39;3.00;;;1.67;;
76599;SDS011;65489;52.048;6.090;2023-06-14T00:57:06;1.90;;;1.50;;
76599;SDS011;65489;52.048;6.090;2023-06-14T00:59:32;1.45;;;1.35;;
76599;SDS011;65489;52.048;6.090;2023-06-14T01:01:58;2.20;;;1.23;;
76599;SDS011;65489;52.048;6.090;2023-06-14T01:04:23;1.60;;;1.23;;
76599;SDS011;65489;52.048;6.090;2023-06-14T01:14:46;1.70;;;1.60;;
76599;SDS011;65489;52.048;6.090;2023-06-14T01:17:13;1.42;;;1.33;;
76599;SDS011;65489;52.048;6.090;2023-06-14T01:19:45;1.77;;;1.42;;
76599;SDS011;65489;52.048;6.090;2023-06-14T01:22:13;2.08;;;1.60;;
76599;SDS011;65489;52.048;6.090;2023-06-14T01:24:39;1.77;;;1.40;;
76599;SDS011;65489;52.048;6.090;2023-06-14T01:27:10;2.50;;;1.30;;
76599;SDS011;65489;52.048;6.090;2023-06-14T01:29:37;2.42;;;1.60;;
76599;SDS011;65489;52.048;6.090;2023-06-14T01:32:03;2.38;;;1.35;;
76599;SDS011;65489;52.048;6.090;2023-06-14T01:34:29;1.50;;;1.40;;
76599;SDS011;65489;52.048;6.090;2023-06-14T01:36:55;1.65;;;1.30;;
76599;SDS011;65489;52.048;6.090;2023-06-14T01:39:21;1.50;;;1.20;;
76599;SDS011;65489;52.048;6.090;2023-06-14T01:41:47;2.15;;;1.40;;
76599;SDS011;65489;52.048;6.090;2023-06-14T01:44:14;2.22;;;1.55;;
76599;SDS011;65489;52.048;6.090;2023-06-14T01:46:41;1.58;;;1.27;;
76599;SDS011;65489;52.048;6.090;2023-06-14T01:49:07;1.27;;;1.15;;
76599;SDS011;65489;52.048;6.090;2023-06-14T01:51:33;1.70;;;1.40;;
76599;SDS011;65489;52.048;6.090;2023-06-14T01:53:58;2.20;;;1.50;;
76599;SDS011;65489;52.048;6.090;2023-06-14T01:56:25;1.70;;;1.15;;
76599;SDS011;65489;52.048;6.090;2023-06-14T01:58:51;1.60;;;1.30;;
76599;SDS011;65489;52.048;6.090;2023-06-14T02:01:17;1.58;;;1.33;;
76599;SDS011;65489;52.048;6.090;2023-06-14T02:03:44;3.00;;;1.30;;
76599;SDS011;65489;52.048;6.090;2023-06-14T02:06:10;2.40;;;1.50;;
76599;SDS011;65489;52.048;6.090;2023-06-14T02:08:35;2.40;;;1.48;;
76599;SDS011;65489;52.048;6.090;2023-06-14T02:11:01;2.78;;;1.58;;
76599;SDS011;65489;52.048;6.090;2023-06-14T02:13:26;4.90;;;1.40;;
76599;SDS011;65489;52.048;6.090;2023-06-14T02:15:52;2.15;;;1.50;;
76599;SDS011;65489;52.048;6.090;2023-06-14T02:18:20;1.63;;;1.25;;
76599;SDS011;65489;52.048;6.090;2023-06-14T02:20:46;2.10;;;1.50;;
76599;SDS011;65489;52.048;6.090;2023-06-14T02:23:12;4.47;;;1.38;;
76599;SDS011;65489;52.048;6.090;2023-06-14T02:25:38;1.40;;;1.05;;
76599;SDS011;65489;52.048;6.090;2023-06-14T02:28:06;1.48;;;1.27;;
76599;SDS011;65489;52.048;6.090;2023-06-14T02:30:32;2.15;;;1.58;;
76599;SDS011;65489;52.048;6.090;2023-06-14T02:32:57;1.70;;;1.30;;
76599;SDS011;65489;52.048;6.090;2023-06-14T02:35:24;2.90;;;1.35;;
76599;SDS011;65489;52.048;6.090;2023-06-14T02:37:51;2.67;;;1.45;;
76599;SDS011;65489;52.048;6.090;2023-06-14T02:40:17;5.95;;;1.58;;
76599;SDS011;65489;52.048;6.090;2023-06-14T02:42:43;2.42;;;1.20;;
76599;SDS011;65489;52.048;6.090;2023-06-14T02:45:09;4.88;;;1.38;;
76599;SDS011;65489;52.048;6.090;2023-06-14T02:47:34;3.15;;;1.50;;
76599;SDS011;65489;52.048;6.090;2023-06-14T02:50:00;2.00;;;1.40;;
76599;SDS011;65489;52.048;6.090;2023-06-14T02:52:25;4.90;;;1.70;;
76599;SDS011;65489;52.048;6.090;2023-06-14T02:54:51;2.60;;;1.45;;
76599;SDS011;65489;52.048;6.090;2023-06-14T02:57:17;3.10;;;1.67;;
76599;SDS011;65489;52.048;6.090;2023-06-14T02:59:42;3.15;;;1.73;;
76599;SDS011;65489;52.048;6.090;2023-06-14T03:02:08;4.63;;;1.58;;
76599;SDS011;65489;52.048;6.090;2023-06-14T03:04:34;2.13;;;1.45;;
76599;SDS011;65489;52.048;6.090;2023-06-14T03:07:04;3.78;;;1.63;;
76599;SDS011;65489;52.048;6.090;2023-06-14T03:09:36;2.00;;;1.38;;
76599;SDS011;65489;52.048;6.090;2023-06-14T03:12:03;3.10;;;1.60;;
76599;SDS011;65489;52.048;6.090;2023-06-14T03:14:32;2.65;;;1.40;;
76599;SDS011;65489;52.048;6.090;2023-06-14T03:16:58;2.60;;;1.45;;
76599;SDS011;65489;52.048;6.090;2023-06-14T03:19:24;4.00;;;1.50;;
76599;SDS011;65489;52.048;6.090;2023-06-14T03:21:52;4.03;;;1.70;;
76599;SDS011;65489;52.048;6.090;2023-06-14T03:24:18;4.93;;;1.65;;
76599;SDS011;65489;52.048;6.090;2023-06-14T03:26:45;1.73;;;1.50;;
76599;SDS011;65489;52.048;6.090;2023-06-14T03:29:10;4.85;;;1.40;;
76599;SDS011;65489;52.048;6.090;2023-06-14T03:31:39;3.60;;;1.40;;
76599;SDS011;65489;52.048;6.090;2023-06-14T03:34:06;2.42;;;1.48;;
76599;SDS011;65489;52.048;6.090;2023-06-14T03:36:32;2.85;;;1.40;;
76599;SDS011;65489;52.048;6.090;2023-06-14T03:38:58;3.65;;;1.67;;
76599;SDS011;65489;52.048;6.090;2023-06-14T03:41:24;3.78;;;1.40;;
76599;SDS011;65489;52.048;6.090;2023-06-14T03:43:52;2.50;;;1.80;;
76599;SDS011;65489;52.048;6.090;2023-06-14T03:46:18;2.30;;;1.48;;
76599;SDS011;65489;52.048;6.090;2023-06-14T03:48:43;3.50;;;1.65;;
76599;SDS011;65489;52.048;6.090;2023-06-14T03:51:09;4.65;;;1.42;;
76599;SDS011;65489;52.048;6.090;2023-06-14T03:53:37;2.75;;;1.30;;
76599;SDS011;65489;52.048;6.090;2023-06-14T03:56:02;3.20;;;1.40;;
76599;SDS011;65489;52.048;6.090;2023-06-14T03:58:37;2.78;;;1.20;;
76599;SDS011;65489;52.048;6.090;2023-06-14T04:01:02;2.97;;;1.63;;
76599;SDS011;65489;52.048;6.090;2023-06-14T04:03:30;3.07;;;1.73;;
76599;SDS011;65489;52.048;6.090;2023-06-14T04:05:59;2.70;;;1.10;;
76599;SDS011;65489;52.048;6.090;2023-06-14T04:08:25;3.40;;;1.23;;
76599;SDS011;65489;52.048;6.090;2023-06-14T04:10:50;4.05;;;1.65;;
76599;SDS011;65489;52.048;6.090;2023-06-14T04:13:16;2.83;;;1.27;;
76599;SDS011;65489;52.048;6.090;2023-06-14T04:15:42;8.65;;;1.60;;
76599;SDS011;65489;52.048;6.090;2023-06-14T04:18:14;2.40;;;1.35;;
76599;SDS011;65489;52.048;6.090;2023-06-14T04:20:39;2.25;;;1.33;;
76599;SDS011;65489;52.048;6.090;2023-06-14T04:23:12;3.22;;;1.48;;
76599;SDS011;65489;52.048;6.090;2023-06-14T04:25:38;2.13;;;1.23;;
76599;SDS011;65489;52.048;6.090;2023-06-14T04:28:04;2.20;;;1.40;;
76599;SDS011;65489;52.048;6.090;2023-06-14T04:30:30;3.30;;;1.40;;
76599;SDS011;65489;52.048;6.090;2023-06-14T04:32:57;1.70;;;1.40;;
76599;SDS011;65489;52.048;6.090;2023-06-14T04:35:22;1.50;;;1.35;;
76599;SDS011;65489;52.048;6.090;2023-06-14T04:37:54;3.25;;;1.35;;
76599;SDS011;65489;52.048;6.090;2023-06-14T04:40:20;3.88;;;1.15;;
76599;SDS011;65489;52.048;6.090;2023-06-14T04:42:46;3.33;;;1.38;;
76599;SDS011;65489;52.048;6.090;2023-06-14T04:45:15;1.55;;;1.20;;
76599;SDS011;65489;52.048;6.090;2023-06-14T04:47:42;2.08;;;1.40;;
76599;SDS011;65489;52.048;6.090;2023-06-14T04:50:09;1.98;;;1.23;;
76599;SDS011;65489;52.048;6.090;2023-06-14T04:52:39;1.40;;;1.23;;
76599;SDS011;65489;52.048;6.090;2023-06-14T04:55:05;2.97;;;1.60;;
76599;SDS011;65489;52.048;6.090;2023-06-14T04:57:32;1.55;;;1.30;;
76599;SDS011;65489;52.048;6.090;2023-06-14T04:59:58;2.10;;;1.27;;
76599;SDS011;65489;52.048;6.090;2023-06-14T05:02:26;5.33;;;1.23;;
76599;SDS011;65489;52.048;6.090;2023-06-14T05:04:53;1.83;;;1.23;;
76599;SDS011;65489;52.048;6.090;2023-06-14T05:07:19;2.40;;;1.30;;
76599;SDS011;65489;52.048;6.090;2023-06-14T05:09:47;1.77;;;1.33;;
76599;SDS011;65489;52.048;6.090;2023-06-14T05:12:13;7.85;;;1.65;;
76599;SDS011;65489;52.048;6.090;2023-06-14T05:14:40;1.52;;;1.38;;
76599;SDS011;65489;52.048;6.090;2023-06-14T05:17:06;1.58;;;1.10;;
76599;SDS011;65489;52.048;6.090;2023-06-14T05:19:32;3.20;;;1.27;;
76599;SDS011;65489;52.048;6.090;2023-06-14T05:21:57;2.28;;;1.30;;
76599;SDS011;65489;52.048;6.090;2023-06-14T05:24:22;1.85;;;1.23;;
76599;SDS011;65489;52.048;6.090;2023-06-14T05:26:48;2.95;;;1.38;;
76599;SDS011;65489;52.048;6.090;2023-06-14T05:29:14;2.10;;;1.25;;
76599;SDS011;65489;52.048;6.090;2023-06-14T05:31:39;4.50;;;1.40;;
76599;SDS011;65489;52.048;6.090;2023-06-14T05:34:05;2.45;;;1.50;;
76599;SDS011;65489;52.048;6.090;2023-06-14T05:36:30;1.63;;;1.20;;
76599;SDS011;65489;52.048;6.090;2023-06-14T05:38:56;3.83;;;1.42;;
76599;SDS011;65489;52.048;6.090;2023-06-14T05:43:56;4.03;;;1.25;;
76599;SDS011;65489;52.048;6.090;2023-06-14T05:46:22;2.05;;;1.52;;
76599;SDS011;65489;52.048;6.090;2023-06-14T05:48:50;2.47;;;1.30;;
76599;SDS011;65489;52.048;6.090;2023-06-14T05:51:16;2.88;;;1.33;;
76599;SDS011;65489;52.048;6.090;2023-06-14T05:53:50;2.78;;;1.38;;
76599;SDS011;65489;52.048;6.090;2023-06-14T05:56:15;3.72;;;1.50;;
76599;SDS011;65489;52.048;6.090;2023-06-14T05:58:42;1.63;;;1.48;;
76599;SDS011;65489;52.048;6.090;2023-06-14T06:01:08;3.92;;;1.17;;
76599;SDS011;65489;52.048;6.090;2023-06-14T06:03:33;3.22;;;1.58;;
76599;SDS011;65489;52.048;6.090;2023-06-14T06:05:59;5.25;;;1.50;;
76599;SDS011;65489;52.048;6.090;2023-06-14T06:08:26;2.65;;;1.70;;
76599;SDS011;65489;52.048;6.090;2023-06-14T06:10:51;2.92;;;1.35;;
76599;SDS011;65489;52.048;6.090;2023-06-14T06:13:17;3.05;;;1.70;;
76599;SDS011;65489;52.048;6.090;2023-06-14T06:15:43;3.08;;;1.33;;
76599;SDS011;65489;52.048;6.090;2023-06-14T06:18:08;2.22;;;1.23;;
76599;SDS011;65489;52.048;6.090;2023-06-14T06:20:33;4.80;;;1.50;;
76599;SDS011;65489;52.048;6.090;2023-06-14T06:22:59;1.50;;;1.25;;
76599;SDS011;65489;52.048;6.090;2023-06-14T06:25:25;3.63;;;1.80;;
76599;SDS011;65489;52.048;6.090;2023-06-14T06:27:54;3.95;;;1.90;;
76599;SDS011;65489;52.048;6.090;2023-06-14T06:30:21;5.93;;;2.15;;
76599;SDS011;65489;52.048;6.090;2023-06-14T06:32:47;5.15;;;2.10;;
76599;SDS011;65489;52.048;6.090;2023-06-14T06:35:12;5.00;;;1.42;;
76599;SDS011;65489;52.048;6.090;2023-06-14T06:37:39;5.22;;;1.50;;
76599;SDS011;65489;52.048;6.090;2023-06-14T06:40:05;3.65;;;1.65;;
76599;SDS011;65489;52.048;6.090;2023-06-14T06:42:31;3.97;;;1.58;;
76599;SDS011;65489;52.048;6.090;2023-06-14T06:45:01;2.20;;;1.20;;
76599;SDS011;65489;52.048;6.090;2023-06-14T06:47:27;4.45;;;1.33;;
76599;SDS011;65489;52.048;6.090;2023-06-14T06:49:52;3.00;;;1.27;;
76599;SDS011;65489;52.048;6.090;2023-06-14T06:52:18;2.35;;;1.20;;
76599;SDS011;65489;52.048;6.090;2023-06-14T06:54:43;3.78;;;1.50;;
76599;SDS011;65489;52.048;6.090;2023-06-14T06:57:08;2.42;;;1.35;;
76599;SDS011;65489;52.048;6.090;2023-06-14T06:59:35;2.35;;;1.35;;
76599;SDS011;65489;52.048;6.090;2023-06-14T07:02:01;3.20;;;1.20;;
76599;SDS011;65489;52.048;6.090;2023-06-14T07:04:29;5.40;;;1.00;;
76599;SDS011;65489;52.048;6.090;2023-06-14T07:06:56;3.20;;;1.40;;
76599;SDS011;65489;52.048;6.090;2023-06-14T07:09:22;2.10;;;1.25;;
76599;SDS011;65489;52.048;6.090;2023-06-14T07:11:48;1.85;;;1.13;;
76599;SDS011;65489;52.048;6.090;2023-06-14T07:14:13;3.55;;;1.20;;
76599;SDS011;65489;52.048;6.090;2023-06-14T07:16:39;4.15;;;1.05;;
76599;SDS011;65489;52.048;6.090;2023-06-14T07:19:06;2.65;;;1.08;;
76599;SDS011;65489;52.048;6.090;2023-06-14T07:21:31;2.53;;;1.27;;
76599;SDS011;65489;52.048;6.090;2023-06-14T07:23:57;1.08;;;0.95;;
76599;SDS011;65489;52.048;6.090;2023-06-14T07:26:22;1.45;;;0.98;;
76599;SDS011;65489;52.048;6.090;2023-06-14T07:28:48;1.50;;;0.82;;
76599;SDS011;65489;52.048;6.090;2023-06-14T07:31:17;2.25;;;1.08;;
76599;SDS011;65489;52.048;6.090;2023-06-14T07:33:44;1.48;;;1.10;;
76599;SDS011;65489;52.048;6.090;2023-06-14T07:36:09;2.40;;;0.90;;
76599;SDS011;65489;52.048;6.090;2023-06-14T07:38:35;1.30;;;1.10;;
76599;SDS011;65489;52.048;6.090;2023-06-14T07:41:01;0.98;;;0.88;;
76599;SDS011;65489;52.048;6.090;2023-06-14T07:43:27;1.33;;;0.70;;
76599;SDS011;65489;52.048;6.090;2023-06-14T07:45:52;2.53;;;0.73;;
76599;SDS011;65489;52.048;6.090;2023-06-14T07:48:18;1.35;;;1.10;;
76599;SDS011;65489;52.048;6.090;2023-06-14T07:50:44;1.70;;;0.88;;
76599;SDS011;65489;52.048;6.090;2023-06-14T07:53:09;3.10;;;1.10;;
76599;SDS011;65489;52.048;6.090;2023-06-14T07:55:35;1.55;;;0.98;;
76599;SDS011;65489;52.048;6.090;2023-06-14T07:58:02;4.93;;;1.13;;
76599;SDS011;65489;52.048;6.090;2023-06-14T08:00:28;2.80;;;0.90;;
76599;SDS011;65489;52.048;6.090;2023-06-14T08:02:54;1.50;;;1.20;;
76599;SDS011;65489;52.048;6.090;2023-06-14T08:05:23;1.20;;;1.00;;
76599;SDS011;65489;52.048;6.090;2023-06-14T08:07:49;2.88;;;1.00;;
76599;SDS011;65489;52.048;6.090;2023-06-14T08:10:14;3.13;;;1.23;;
76599;SDS011;65489;52.048;6.090;2023-06-14T08:12:40;2.15;;;1.00;;
76599;SDS011;65489;52.048;6.090;2023-06-14T08:15:05;1.30;;;0.93;;
76599;SDS011;65489;52.048;6.090;2023-06-14T08:17:31;3.17;;;1.10;;
76599;SDS011;65489;52.048;6.090;2023-06-14T08:19:56;1.38;;;0.95;;
76599;SDS011;65489;52.048;6.090;2023-06-14T08:22:22;2.35;;;1.02;;
76599;SDS011;65489;52.048;6.090;2023-06-14T08:24:49;2.28;;;0.90;;
76599;SDS011;65489;52.048;6.090;2023-06-14T08:27:15;1.35;;;0.80;;
76599;SDS011;65489;52.048;6.090;2023-06-14T08:29:41;1.55;;;1.10;;
76599;SDS011;65489;52.048;6.090;2023-06-14T08:32:07;0.90;;;0.75;;
76599;SDS011;65489;52.048;6.090;2023-06-14T08:34:32;1.23;;;0.80;;
76599;SDS011;65489;52.048;6.090;2023-06-14T08:36:58;3.22;;;1.10;;
76599;SDS011;65489;52.048;6.090;2023-06-14T08:39:26;1.48;;;0.93;;
76599;SDS011;65489;52.048;6.090;2023-06-14T08:41:52;1.50;;;1.30;;
76599;SDS011;65489;52.048;6.090;2023-06-14T08:44:17;2.45;;;0.90;;
76599;SDS011;65489;52.048;6.090;2023-06-14T08:46:43;1.77;;;0.80;;
76599;SDS011;65489;52.048;6.090;2023-06-14T08:49:12;1.45;;;0.80;;
76599;SDS011;65489;52.048;6.090;2023-06-14T08:51:38;1.75;;;0.90;;
76599;SDS011;65489;52.048;6.090;2023-06-14T08:54:05;1.52;;;0.82;;
76599;SDS011;65489;52.048;6.090;2023-06-14T08:56:32;1.20;;;0.90;;
76599;SDS011;65489;52.048;6.090;2023-06-14T08:58:59;1.50;;;0.98;;
76599;SDS011;65489;52.048;6.090;2023-06-14T09:01:30;0.93;;;0.77;;
76599;SDS011;65489;52.048;6.090;2023-06-14T09:03:59;2.03;;;0.73;;
76599;SDS011;65489;52.048;6.090;2023-06-14T09:06:24;1.60;;;0.90;;
76599;SDS011;65489;52.048;6.090;2023-06-14T09:08:50;1.85;;;0.90;;
76599;SDS011;65489;52.048;6.090;2023-06-14T09:11:16;1.35;;;0.75;;
76599;SDS011;65489;52.048;6.090;2023-06-14T09:13:44;1.87;;;0.63;;
76599;SDS011;65489;52.048;6.090;2023-06-14T09:16:13;0.70;;;0.70;;
76599;SDS011;65489;52.048;6.090;2023-06-14T09:18:39;1.50;;;0.90;;
76599;SDS011;65489;52.048;6.090;2023-06-14T09:21:06;1.23;;;0.80;;
76599;SDS011;65489;52.048;6.090;2023-06-14T09:23:38;2.65;;;0.90;;
76599;SDS011;65489;52.048;6.090;2023-06-14T09:26:06;2.50;;;0.73;;
76599;SDS011;65489;52.048;6.090;2023-06-14T09:28:36;0.88;;;0.80;;
76599;SDS011;65489;52.048;6.090;2023-06-14T09:31:02;2.17;;;0.70;;
76599;SDS011;65489;52.048;6.090;2023-06-14T09:33:27;0.88;;;0.75;;
76599;SDS011;65489;52.048;6.090;2023-06-14T09:35:54;2.25;;;1.00;;
76599;SDS011;65489;52.048;6.090;2023-06-14T09:38:19;1.42;;;0.70;;
76599;SDS011;65489;52.048;6.090;2023-06-14T09:40:45;1.40;;;0.70;;
76599;SDS011;65489;52.048;6.090;2023-06-14T09:43:11;3.88;;;1.10;;
76599;SDS011;65489;52.048;6.090;2023-06-14T09:45:36;0.95;;;0.70;;
76599;SDS011;65489;52.048;6.090;2023-06-14T09:48:05;0.63;;;0.60;;
76599;SDS011;65489;52.048;6.090;2023-06-14T09:50:31;0.85;;;0.70;;
76599;SDS011;65489;52.048;6.090;2023-06-14T09:52:58;1.90;;;0.77;;
76599;SDS011;65489;52.048;6.090;2023-06-14T09:55:34;1.20;;;0.80;;
76599;SDS011;65489;52.048;6.090;2023-06-14T10:00:26;0.70;;;0.60;;
76599;SDS011;65489;52.048;6.090;2023-06-14T10:02:54;2.45;;;0.90;;
76599;SDS011;65489;52.048;6.090;2023-06-14T10:05:22;1.40;;;0.77;;
76599;SDS011;65489;52.048;6.090;2023-06-14T10:07:51;0.98;;;0.68;;
76599;SDS011;65489;52.048;6.090;2023-06-14T10:10:17;1.60;;;0.93;;
76599;SDS011;65489;52.048;6.090;2023-06-14T10:12:43;1.45;;;0.77;;
76599;SDS011;65489;52.048;6.090;2023-06-14T10:21:02;0.93;;;0.70;;
76599;SDS011;65489;52.048;6.090;2023-06-14T10:23:33;1.30;;;0.80;;
76599;SDS011;65489;52.048;6.090;2023-06-14T10:26:02;1.65;;;0.75;;
76599;SDS011;65489;52.048;6.090;2023-06-14T10:28:28;1.02;;;0.75;;
76599;SDS011;65489;52.048;6.090;2023-06-14T10:31:02;0.68;;;0.60;;
76599;SDS011;65489;52.048;6.090;2023-06-14T10:33:53;1.33;;;0.70;;
76599;SDS011;65489;52.048;6.090;2023-06-14T10:38:56;1.08;;;0.77;;
76599;SDS011;65489;52.048;6.090;2023-06-14T10:41:32;1.15;;;0.60;;
76599;SDS011;65489;52.048;6.090;2023-06-14T10:46:37;1.77;;;0.65;;
76599;SDS011;65489;52.048;6.090;2023-06-14T10:49:03;1.00;;;0.68;;
76599;SDS011;65489;52.048;6.090;2023-06-14T10:51:30;2.95;;;0.90;;
76599;SDS011;65489;52.048;6.090;2023-06-14T10:54:11;2.22;;;0.70;;
76599;SDS011;65489;52.048;6.090;2023-06-14T10:56:50;1.50;;;0.80;;
76599;SDS011;65489;52.048;6.090;2023-06-14T10:59:16;3.15;;;0.88;;
76599;SDS011;65489;52.048;6.090;2023-06-14T11:04:39;1.35;;;0.88;;
76599;SDS011;65489;52.048;6.090;2023-06-14T11:12:34;2.53;;;0.90;;
76599;SDS011;65489;52.048;6.090;2023-06-14T11:15:02;1.33;;;0.80;;
76599;SDS011;65489;52.048;6.090;2023-06-14T11:17:28;5.00;;;0.90;;
76599;SDS011;65489;52.048;6.090;2023-06-14T11:20:16;1.20;;;0.90;;
76599;SDS011;65489;52.048;6.090;2023-06-14T11:22:44;1.17;;;0.82;;
76599;SDS011;65489;52.048;6.090;2023-06-14T11:25:11;1.00;;;0.77;;
76599;SDS011;65489;52.048;6.090;2023-06-14T11:27:36;1.85;;;0.90;;
76599;SDS011;65489;52.048;6.090;2023-06-14T11:30:02;4.10;;;0.80;;
76599;SDS011;65489;52.048;6.090;2023-06-14T11:32:28;2.22;;;0.95;;
76599;SDS011;65489;52.048;6.090;2023-06-14T11:34:53;0.80;;;0.80;;
76599;SDS011;65489;52.048;6.090;2023-06-14T11:37:19;1.50;;;0.93;;
76599;SDS011;65489;52.048;6.090;2023-06-14T11:39:45;1.02;;;0.73;;
76599;SDS011;65489;52.048;6.090;2023-06-14T11:42:16;2.08;;;0.73;;
76599;SDS011;65489;52.048;6.090;2023-06-14T11:44:41;1.15;;;0.80;;
76599;SDS011;65489;52.048;6.090;2023-06-14T11:47:07;0.95;;;0.70;;
76599;SDS011;65489;52.048;6.090;2023-06-14T11:49:36;1.10;;;0.80;;
76599;SDS011;65489;52.048;6.090;2023-06-14T11:52:01;1.90;;;0.90;;
76599;SDS011;65489;52.048;6.090;2023-06-14T11:54:27;1.00;;;0.80;;
76599;SDS011;65489;52.048;6.090;2023-06-14T11:56:52;1.05;;;0.77;;
76599;SDS011;65489;52.048;6.090;2023-06-14T11:59:18;1.58;;;0.90;;
76599;SDS011;65489;52.048;6.090;2023-06-14T12:01:43;0.75;;;0.60;;
76599;SDS011;65489;52.048;6.090;2023-06-14T12:04:10;1.00;;;0.70;;
76599;SDS011;65489;52.048;6.090;2023-06-14T12:06:35;1.25;;;0.70;;
76599;SDS011;65489;52.048;6.090;2023-06-14T12:09:04;0.90;;;0.63;;
76599;SDS011;65489;52.048;6.090;2023-06-14T12:11:38;1.20;;;0.70;;
76599;SDS011;65489;52.048;6.090;2023-06-14T12:14:04;1.98;;;0.77;;
76599;SDS011;65489;52.048;6.090;2023-06-14T12:16:32;1.05;;;0.60;;
76599;SDS011;65489;52.048;6.090;2023-06-14T12:19:00;2.45;;;0.75;;
76599;SDS011;65489;52.048;6.090;2023-06-14T12:21:27;1.00;;;0.70;;
76599;SDS011;65489;52.048;6.090;2023-06-14T12:23:54;2.22;;;0.68;;
76599;SDS011;65489;52.048;6.090;2023-06-14T12:26:20;1.75;;;0.80;;
76599;SDS011;65489;52.048;6.090;2023-06-14T12:28:45;1.40;;;0.70;;
76599;SDS011;65489;52.048;6.090;2023-06-14T12:31:12;1.52;;;0.75;;
76599;SDS011;65489;52.048;6.090;2023-06-14T12:33:39;0.98;;;0.88;;
76599;SDS011;65489;52.048;6.090;2023-06-14T12:36:06;1.08;;;0.60;;
76599;SDS011;65489;52.048;6.090;2023-06-14T12:38:33;0.70;;;0.68;;
76599;SDS011;65489;52.048;6.090;2023-06-14T12:40:58;1.40;;;0.73;;
76599;SDS011;65489;52.048;6.090;2023-06-14T12:43:24;0.80;;;0.60;;
76599;SDS011;65489;52.048;6.090;2023-06-14T12:45:49;0.70;;;0.60;;
76599;SDS011;65489;52.048;6.090;2023-06-14T12:48:15;4.45;;;0.80;;
76599;SDS011;65489;52.048;6.090;2023-06-14T12:50:40;1.30;;;0.63;;
76599;SDS011;65489;52.048;6.090;2023-06-14T12:53:06;0.80;;;0.50;;
76599;SDS011;65489;52.048;6.090;2023-06-14T12:55:32;0.60;;;0.50;;
76599;SDS011;65489;52.048;6.090;2023-06-14T12:57:57;0.85;;;0.60;;
76599;SDS011;65489;52.048;6.090;2023-06-14T13:00:23;1.25;;;0.70;;
76599;SDS011;65489;52.048;6.090;2023-06-14T13:02:50;0.93;;;0.65;;
76599;SDS011;65489;52.048;6.090;2023-06-14T13:05:17;1.23;;;0.55;;
76599;SDS011;65489;52.048;6.090;2023-06-14T13:07:42;1.83;;;0.60;;
76599;SDS011;65489;52.048;6.090;2023-06-14T13:10:08;0.70;;;0.50;;
76599;SDS011;65489;52.048;6.090;2023-06-14T13:12:33;1.83;;;0.60;;
76599;SDS011;65489;52.048;6.090;2023-06-14T13:14:59;1.13;;;0.57;;
76599;SDS011;65489;52.048;6.090;2023-06-14T13:17:24;1.20;;;0.80;;
76599;SDS011;65489;52.048;6.090;2023-06-14T13:19:50;0.60;;;0.50;;
76599;SDS011;65489;52.048;6.090;2023-06-14T13:22:15;1.52;;;0.70;;
76599;SDS011;65489;52.048;6.090;2023-06-14T13:24:41;0.70;;;0.50;;
76599;SDS011;65489;52.048;6.090;2023-06-14T13:27:06;1.38;;;0.50;;
76599;SDS011;65489;52.048;6.090;2023-06-14T13:29:31;0.60;;;0.47;;
76599;SDS011;65489;52.048;6.090;2023-06-14T13:31:58;0.80;;;0.60;;
76599;SDS011;65489;52.048;6.090;2023-06-14T13:34:24;1.17;;;0.60;;
76599;SDS011;65489;52.048;6.090;2023-06-14T13:36:49;0.70;;;0.52;;
76599;SDS011;65489;52.048;6.090;2023-06-14T13:39:15;2.15;;;0.50;;
76599;SDS011;65489;52.048;6.090;2023-06-14T13:41:41;1.80;;;0.50;;
76599;SDS011;65489;52.048;6.090;2023-06-14T13:44:06;1.85;;;0.68;;
76599;SDS011;65489;52.048;6.090;2023-06-14T13:46:32;0.80;;;0.60;;
76599;SDS011;65489;52.048;6.090;2023-06-14T13:48:57;0.45;;;0.43;;
76599;SDS011;65489;52.048;6.090;2023-06-14T13:51:23;0.80;;;0.70;;
76599;SDS011;65489;52.048;6.090;2023-06-14T13:53:49;0.50;;;0.50;;
76599;SDS011;65489;52.048;6.090;2023-06-14T13:56:15;1.33;;;0.80;;
76599;SDS011;65489;52.048;6.090;2023-06-14T13:58:41;0.75;;;0.57;;
76599;SDS011;65489;52.048;6.090;2023-06-14T14:01:08;0.85;;;0.50;;
76599;SDS011;65489;52.048;6.090;2023-06-14T14:03:33;0.75;;;0.57;;
76599;SDS011;65489;52.048;6.090;2023-06-14T14:06:00;0.80;;;0.60;;
76599;SDS011;65489;52.048;6.090;2023-06-14T14:08:26;1.50;;;0.60;;
76599;SDS011;65489;52.048;6.090;2023-06-14T14:10:52;2.17;;;0.50;;
76599;SDS011;65489;52.048;6.090;2023-06-14T14:13:17;1.15;;;0.60;;
76599;SDS011;65489;52.048;6.090;2023-06-14T14:15:43;1.63;;;0.70;;
76599;SDS011;65489;52.048;6.090;2023-06-14T14:18:09;1.00;;;0.57;;
76599;SDS011;65489;52.048;6.090;2023-06-14T14:20:34;2.13;;;0.70;;
76599;SDS011;65489;52.048;6.090;2023-06-14T14:23:00;0.98;;;0.60;;
76599;SDS011;65489;52.048;6.090;2023-06-14T14:25:25;0.60;;;0.50;;
76599;SDS011;65489;52.048;6.090;2023-06-14T14:27:51;1.45;;;0.50;;
76599;SDS011;65489;52.048;6.090;2023-06-14T14:30:16;1.27;;;0.75;;
76599;SDS011;65489;52.048;6.090;2023-06-14T14:32:43;1.58;;;0.63;;
76599;SDS011;65489;52.048;6.090;2023-06-14T14:35:09;0.50;;;0.40;;
76599;SDS011;65489;52.048;6.090;2023-06-14T14:37:35;0.60;;;0.55;;
76599;SDS011;65489;52.048;6.090;2023-06-14T14:40:00;1.58;;;0.50;;
76599;SDS011;65489;52.048;6.090;2023-06-14T14:42:26;0.52;;;0.40;;
76599;SDS011;65489;52.048;6.090;2023-06-14T14:44:52;0.70;;;0.70;;
76599;SDS011;65489;52.048;6.090;2023-06-14T14:47:17;0.98;;;0.60;;
76599;SDS011;65489;52.048;6.090;2023-06-14T14:49:42;0.50;;;0.40;;
76599;SDS011;65489;52.048;6.090;2023-06-14T14:52:08;0.70;;;0.50;;
76599;SDS011;65489;52.048;6.090;2023-06-14T14:54:33;0.88;;;0.50;;
76599;SDS011;65489;52.048;6.090;2023-06-14T14:56:59;0.55;;;0.45;;
76599;SDS011;65489;52.048;6.090;2023-06-14T14:59:25;1.35;;;0.70;;
76599;SDS011;65489;52.048;6.090;2023-06-14T15:01:50;0.88;;;0.55;;
76599;SDS011;65489;52.048;6.090;2023-06-14T15:04:17;0.73;;;0.70;;
76599;SDS011;65489;52.048;6.090;2023-06-14T15:06:42;0.88;;;0.60;;
76599;SDS011;65489;52.048;6.090;2023-06-14T15:09:08;1.48;;;0.70;;
76599;SDS011;65489;52.048;6.090;2023-06-14T15:11:33;1.10;;;0.50;;
76599;SDS011;65489;52.048;6.090;2023-06-14T15:13:59;1.45;;;0.57;;
76599;SDS011;65489;52.048;6.090;2023-06-14T15:16:24;0.85;;;0.65;;